METAR Data
IDs: Format: Raw Decoded Include TAF

Data at: 0235 UTC 19 Oct 2021

PASM 190156Z AUTO 13010KT 10SM FEW017 BKN110 M02/M04 A2954 RMK AO2 SLP013 T10221044 FZRANO
PASM 190056Z AUTO 12009KT 10SM CLR M02/M04 A2956 RMK AO2 SLP020 T10171044 FZRANO
PASM 182356Z AUTO 15005KT 10SM CLR M02/M04 A2961 RMK AO2 SLP038 T10171044 11017 21067 56030 FZRANO
PASM 182256Z AUTO 12008KT 10SM CLR M02/M04 A2963 RMK AO2 SLP045 T10221044 FZRANO
PASM 182156Z AUTO 13006KT 10SM CLR M03/M05 A2968 RMK AO2 SLP060 T10331050 FZRANO
PASM 182056Z AUTO 10007KT 10SM CLR M04/M06 A2970 RMK AO2 SLP069 T10391056 58016 FZRANO
PASM 181956Z AUTO 09006KT 10SM CLR M04/M06 A2973 RMK AO2 SLP076 T10441061 FZRANO
PASM 181856Z AUTO 06004KT 10SM CLR M06/M07 A2974 RMK AO2 SLP081 T10561067 FZRANO
PASM 181756Z AUTO 04004KT 10SM CLR M07/M08 A2975 RMK AO2 SLP086 T10671078 11056 21078 58017 FZRANO
PASM 181656Z AUTO 00000KT 10SM CLR M07/M08 A2978 RMK AO2 SLP094 T10721083 FZRANO
PASM 181556Z AUTO 00000KT 10SM CLR M08/M09 A2979 RMK AO2 SLP098 T10781089 FZRANO
PASM 181456Z AUTO 02004KT 10SM CLR M07/M09 A2980 RMK AO2 SLP102 T10721089 58001 FZRANO
PASM 181356Z AUTO 02004KT 10SM CLR M07/M08 A2981 RMK AO2 SLP104 T10721083 FZRANO
PASM 181256Z AUTO 00000KT 10SM CLR M07/M08 A2981 RMK AO2 SLP104 T10671078 FZRANO
PASM 181156Z AUTO 34004KT 10SM CLR M06/M07 A2980 RMK AO2 SLP102 T10561072 11028 21067 51010 FZRANO
PASM 181056Z AUTO 35008KT 10SM CLR M05/M07 A2980 RMK AO2 SLP100 T10501067 FZRANO
PASM 180956Z AUTO 35007KT 10SM CLR M06/M07 A2979 RMK AO2 SLP099 T10611072 FZRANO
PASM 180856Z AUTO 35009KT 10SM CLR M05/M07 A2977 RMK AO2 SLP092 T10501067 53011 FZRANO
PASM 180756Z AUTO 36010KT 10SM CLR M03/M06 A2976 RMK AO2 SLP088 T10331056 400111033 FZRANO
PASM 180732Z AUTO 01007KT 10SM FEW019 M03/M05 A2975 RMK AO2 FZRANO
PASM 180656Z AUTO 01010KT 10SM BKN019 M03/M05 A2974 RMK AO2 SLP081 T10331050 FZRANO
PASM 180653Z AUTO 01010KT 10SM BKN019 M03/M05 A2974 RMK AO2 FZRANO
PASM 180556Z AUTO 01009KT 10SM CLR M03/M05 A2972 RMK AO2 SLP072 T10331050 10006 21033 51030 FZRANO
PASM 180456Z AUTO 02009G15KT 10SM CLR M02/M04 A2969 RMK AO2 SLP064 T10221044 FZRANO
PASM 180356Z AUTO 36014G20KT 10SM CLR M02/M04 A2966 RMK AO2 SLP054 T10171039 FZRANO
PASM 180256Z AUTO 01015G24KT 10SM CLR M01/M04 A2963 RMK AO2 SLP043 T10061039 53029 FZRANO
PASM 180156Z AUTO 36018G24KT 10SM CLR 00/M03 A2959 RMK AO2 SLP031 T00001033 FZRANO
PASM 180056Z AUTO 01016G24KT 10SM OVC055 01/M04 A2957 RMK AO2 SLP022 T00061039 FZRANO
PASM 172356Z AUTO 01011G18KT 10SM OVC039 01/M04 A2954 RMK AO2 SLP013 60000 T00061039 10011 21006 53034 FZRANO
PASM 172256Z AUTO 02011G16KT 10SM OVC048 01/M03 A2950 RMK AO2 SLP000 T00111033 FZRANO
PASM 172156Z AUTO 03013G18KT 10SM OVC048 01/M03 A2947 RMK AO2 SLP988 T00061028 FZRANO
PASM 172056Z AUTO 04015G23KT 10SM OVC055 01/M04 A2944 RMK AO2 SLP978 60000 T00111044 51038 FZRANO
PASM 171956Z AUTO 03011G16KT 10SM OVC049 00/M04 A2941 RMK AO2 SLP968 T00001039 FZRANO
PASM 171856Z AUTO 04012G17KT 10SM OVC047 M01/M03 A2937 RMK AO2 PK WND 07028/1806 SNE23 SLP955 P0000 T10061028 FZRANO
PASM 171756Z AUTO 07018G26KT 9SM -SN OVC044 M01/M03 A2933 RMK AO2 PK WND 05027/1728 SNE21B44 SLP941 P0000 60000 T10061033 11006 21022 51025 FZRANO
PASM 171656Z AUTO 06018G27KT 7SM -SN SCT044 OVC070 M02/M03 A2930 RMK AO2 PK WND 07028/1641 SLP932 P0000 T10171033 FZRANO
PASM 171611Z AUTO 06019G28KT 9SM -SN SCT030 BKN038 OVC065 M02/M04 A2928 RMK AO2 PK WND 07028/1604 P0000 FZRANO
PASM 171556Z AUTO 06019G25KT 5SM -SN BR BKN029 BKN038 OVC048 M02/M04 A2928 RMK AO2 PK WND 07029/1508 SLP922 P0000 T10221039 FZRANO
PASM 171456Z AUTO 07022G28KT 10SM -SN SCT035 BKN085 OVC110 M02/M04 A2925 RMK AO2 PK WND 07029/1442 SNB52 SLP914 P0000 60000 T10221039 53008 FZRANO